Time;durP1;ratioP1;P1;durP2;ratioP2;P2;SDS_P1;SDS_P2;PMS_P1;PMS_P2;Temp;Humidity;BMP_temperature;BMP_pressure;BME280_temperature;BME280_humidity;BME280_pressure;Samples;Min_cycle;Max_cycle;Signal;HPM_P1;HPM_P2
2023/03/28 00:01:56;;;;;;;;;2.00;2.00;;;;;9.06;42.25;102089.91;5035969;28;46135;-54
2023/03/28 00:04:22;;;;;;;;;3.25;3.25;;;;;9.04;42.54;102097.47;5025667;28;45440;-55
2023/03/28 00:06:48;;;;;;;;;2.50;2.50;;;;;9.05;42.04;102092.81;5006006;28;45486;-54
2023/03/28 00:09:15;;;;;;;;;2.40;1.20;;;;;9.07;42.22;102088.88;5018045;28;45544;-56
2023/03/28 00:11:41;;;;;;;;;2.20;2.20;;;;;9.07;42.04;102091.63;5017848;28;46105;-55
2023/03/28 00:14:07;;;;;;;;;7.25;3.00;;;;;9.05;42.23;102095.56;5018284;28;46135;-54
2023/03/28 00:16:34;;;;;;;;;4.00;4.00;;;;;9.08;43.10;102093.34;5036250;28;45327;-52
2023/03/28 00:19:04;;;;;;;;;3.60;2.40;;;;;8.86;42.27;102064.72;5036481;28;45221;-55
2023/03/28 00:21:32;;;;;;;;;3.20;2.80;;;;;9.13;42.36;102105.69;5035731;28;45717;-54
2023/03/28 00:24:00;;;;;;;;;6.00;4.00;;;;;9.04;42.96;102089.25;5035887;28;45395;-55
2023/03/28 00:26:26;;;;;;;;;2.60;2.60;;;;;8.81;43.17;102059.75;5034808;28;45461;-53
2023/03/28 00:28:53;;;;;;;;;4.80;3.40;;;;;9.06;43.15;102103.63;5018315;28;45327;-56
2023/03/28 00:31:19;;;;;;;;;4.00;3.60;;;;;9.04;42.76;102100.19;5018191;28;45558;-56
2023/03/28 00:33:46;;;;;;;;;4.00;4.00;;;;;9.04;42.73;102100.19;5035225;28;45411;-56
2023/03/28 00:36:13;;;;;;;;;4.80;4.00;;;;;8.85;42.83;102071.22;5034444;28;45426;-53
2023/03/28 00:38:39;;;;;;;;;6.20;3.20;;;;;9.02;43.44;102094.00;5036198;28;45522;-56
2023/03/28 00:41:08;;;;;;;;;3.00;3.00;;;;;8.99;43.30;102090.75;5001085;28;47139;-55
2023/03/28 00:43:38;;;;;;;;;3.00;3.00;;;;;9.04;43.51;102091.97;5035557;28;45503;-55
2023/03/28 00:46:07;;;;;;;;;6.40;4.00;;;;;9.06;42.93;102091.78;5035250;28;45452;-56
2023/03/28 00:48:32;;;;;;;;;7.00;6.00;;;;;9.06;43.54;102089.91;5018406;28;45575;-55
2023/03/28 00:51:02;;;;;;;;;6.00;5.50;;;;;9.08;43.23;102090.59;5035327;28;45480;-54
2023/03/28 00:53:28;;;;;;;;;6.60;4.40;;;;;8.99;43.27;102086.16;5035486;28;45296;-53
2023/03/28 00:56:06;;;;;;;;;6.75;6.00;;;;;8.83;43.11;102059.59;5017548;28;45371;-54
2023/03/28 00:58:34;;;;;;;;;6.60;4.00;;;;;9.05;43.39;102092.81;5018164;28;45435;-51
2023/03/28 01:00:59;;;;;;;;;4.00;3.00;;;;;9.06;42.62;102089.91;5035299;28;45534;-54
2023/03/28 01:03:32;;;;;;;;;7.50;6.25;;;;;8.96;42.87;102078.25;5017583;28;45469;-55
2023/03/28 01:05:57;;;;;;;;;3.40;3.00;;;;;9.01;43.65;102092.28;5018212;28;45259;-56
2023/03/28 01:08:24;;;;;;;;;3.75;3.50;;;;;8.96;43.99;102089.19;5035655;28;45354;-55
2023/03/28 01:10:49;;;;;;;;;8.60;6.20;;;;;8.94;43.98;102085.78;5017512;28;45429;-53
2023/03/28 01:13:24;;;;;;;;;4.25;4.25;;;;;8.89;43.90;102089.03;5034843;28;45330;-53
2023/03/28 01:15:50;;;;;;;;;8.80;6.00;;;;;8.65;43.83;102059.72;5049860;28;45413;-55
2023/03/28 01:18:17;;;;;;;;;6.20;6.20;;;;;8.86;43.63;102083.88;5035313;28;45402;-54
2023/03/28 01:21:13;;;;;;;;;6.40;6.00;;;;;8.81;43.56;102076.16;5017343;28;45680;-53
2023/03/28 01:24:09;;;;;;;;;3.80;3.80;;;;;8.89;42.83;102086.28;5033094;28;45363;-52
2023/03/28 01:26:44;;;;;;;;;4.00;4.00;;;;;8.89;43.19;102079.94;5034846;28;45370;-54
2023/03/28 01:29:15;;;;;;;;;5.80;4.00;;;;;8.65;42.78;102032.34;5035048;28;45524;-53
2023/03/28 01:32:19;;;;;;;;;4.00;4.00;;;;;8.89;42.86;102083.56;5034865;28;46778;-52
2023/03/28 01:35:22;;;;;;;;;3.00;2.60;;;;;8.92;43.00;102076.88;5041533;28;45375;-55
2023/03/28 01:38:03;;;;;;;;;7.00;5.80;;;;;8.72;43.66;102027.91;5034777;28;45513;-54
2023/03/28 01:40:36;;;;;;;;;5.60;5.60;;;;;8.99;43.59;102063.38;5017108;28;45320;-55
2023/03/28 01:43:11;;;;;;;;;2.60;2.60;;;;;8.97;43.77;102057.22;5016993;28;47012;-53
2023/03/28 01:45:59;;;;;;;;;6.40;3.80;;;;;8.92;43.17;102044.03;5034524;28;45432;-53
2023/03/28 01:48:50;;;;;;;;;7.40;4.80;;;;;8.92;42.76;102050.34;5030792;28;45280;-54
2023/03/28 01:51:24;;;;;;;;;7.60;6.00;;;;;8.87;43.25;102046.41;5050246;28;45397;-54
2023/03/28 01:54:29;;;;;;;;;3.00;3.00;;;;;8.88;43.56;102039.91;5021956;27;46591;-54
2023/03/28 01:57:10;;;;;;;;;8.00;4.00;;;;;8.90;42.61;102040.59;5007522;28;45374;-53
2023/03/28 01:59:40;;;;;;;;;8.20;5.60;;;;;8.61;42.90;101996.25;5034359;28;45443;-55
2023/03/28 02:02:33;;;;;;;;;6.00;6.00;;;;;8.83;43.25;102018.50;5016685;28;45884;-55
2023/03/28 02:05:00;;;;;;;;;6.00;4.00;;;;;8.52;43.25;101972.59;5018235;28;45860;-54
2023/03/28 02:07:26;;;;;;;;;4.40;4.40;;;;;8.71;43.83;102004.31;4999809;28;45338;-55
2023/03/28 02:09:51;;;;;;;;;4.50;4.00;;;;;8.43;43.20;101963.50;5016470;28;45307;-56
2023/03/28 02:12:23;;;;;;;;;3.00;3.00;;;;;8.61;43.55;102004.47;5016732;28;45351;-54
2023/03/28 02:14:49;;;;;;;;;4.20;4.20;;;;;8.61;43.69;102009.06;5034031;28;45719;-55
2023/03/28 02:17:15;;;;;;;;;5.00;4.25;;;;;8.46;43.90;101997.88;4999715;28;45328;-56
2023/03/28 02:19:47;;;;;;;;;4.00;4.00;;;;;8.56;43.86;102014.19;5016580;28;45763;-55
2023/03/28 02:22:32;;;;;;;;;5.60;5.00;;;;;8.32;43.56;101977.50;5000225;28;45629;-52
2023/03/28 02:24:58;;;;;;;;;6.20;3.80;;;;;8.46;43.78;102011.56;5032493;28;47459;-53
2023/03/28 02:27:23;;;;;;;;;4.50;4.50;;;;;8.49;43.57;102012.06;5033070;28;45437;-54
2023/03/28 02:29:49;;;;;;;;;4.00;3.00;;;;;8.47;44.20;102011.41;5015826;28;45321;-54
2023/03/28 02:32:15;;;;;;;;;7.25;4.00;;;;;8.43;44.16;102001.78;5034218;28;45394;-54
2023/03/28 02:34:44;;;;;;;;;3.00;3.00;;;;;8.46;43.91;102008.81;5033601;28;46829;-55
2023/03/28 02:37:36;;;;;;;;;4.80;2.80;;;;;8.45;44.05;102005.25;5015856;28;45430;-52
2023/03/28 02:40:14;;;;;;;;;3.40;3.40;;;;;8.20;44.20;101964.13;5016149;28;45396;-52
2023/03/28 02:42:39;;;;;;;;;2.20;2.20;;;;;8.41;43.68;101992.91;5034140;28;45299;-54
2023/03/28 02:45:11;;;;;;;;;4.00;3.75;;;;;8.41;43.52;101985.56;5033815;28;46163;-55
2023/03/28 02:48:00;;;;;;;;;6.80;3.00;;;;;8.42;43.74;101983.66;5032224;28;45761;-54
2023/03/28 02:50:34;;;;;;;;;3.20;3.20;;;;;8.36;44.16;101973.41;5044803;28;45471;-55
2023/03/28 02:53:17;;;;;;;;;5.20;3.00;;;;;8.33;44.24;101974.59;5017432;28;45626;-54
2023/03/28 02:56:03;;;;;;;;;6.20;3.80;;;;;8.31;44.50;101976.63;5028269;28;45404;-54
2023/03/28 02:58:48;;;;;;;;;2.60;2.60;;;;;8.13;44.60;101946.69;5002943;28;45557;-53
2023/03/28 03:01:15;;;;;;;;;6.00;3.40;;;;;8.33;44.55;101973.75;4992619;28;45275;-54
2023/03/28 03:03:42;;;;;;;;;2.60;2.60;;;;;8.23;44.28;101955.56;5013722;28;45564;-55
2023/03/28 03:06:08;;;;;;;;;3.00;3.00;;;;;8.30;45.03;101964.00;4995979;28;47432;-56
2023/03/28 03:08:34;;;;;;;;;6.25;3.00;;;;;8.34;44.74;101970.84;5012207;28;45710;-55
2023/03/28 03:10:59;;;;;;;;;2.25;2.25;;;;;8.32;44.40;101967.41;5013458;28;45285;-56
2023/03/28 03:13:25;;;;;;;;;3.25;3.25;;;;;8.26;44.32;101947.06;4995769;28;45444;-55
2023/03/28 03:15:52;;;;;;;;;6.75;5.00;;;;;8.37;44.76;101965.03;4995676;28;46722;-55
2023/03/28 03:18:17;;;;;;;;;3.00;3.00;;;;;8.38;44.67;101957.69;5013329;28;45370;-56
2023/03/28 03:20:44;;;;;;;;;2.00;2.00;;;;;8.42;44.61;101950.84;5014159;28;45340;-55
2023/03/28 03:23:10;;;;;;;;;6.00;6.00;;;;;8.37;44.39;101942.28;5011991;28;45338;-56
2023/03/28 03:25:36;;;;;;;;;2.60;2.60;;;;;8.41;44.64;101944.53;5013385;28;46200;-53
2023/03/28 03:28:02;;;;;;;;;4.25;3.00;;;;;8.40;44.41;101941.94;5013430;28;45489;-56
2023/03/28 03:30:28;;;;;;;;;3.00;1.20;;;;;8.33;45.06;101930.81;5013690;28;45963;-55
2023/03/28 03:32:54;;;;;;;;;4.50;3.00;;;;;8.30;45.10;101913.88;4995783;28;45473;-57
2023/03/28 03:35:20;;;;;;;;;5.60;2.20;;;;;8.11;44.84;101883.94;5013299;28;45663;-55
2023/03/28 03:37:46;;;;;;;;;3.00;3.00;;;;;8.38;45.25;101922.13;5013148;28;45350;-55
2023/03/28 03:40:11;;;;;;;;;2.50;2.50;;;;;8.39;44.98;101923.84;5015945;28;45774;-53
2023/03/28 03:42:37;;;;;;;;;3.50;3.50;;;;;8.29;44.29;101921.25;5017040;28;45727;-56
2023/03/28 03:45:03;;;;;;;;;3.00;3.00;;;;;8.05;45.05;101905.63;5016865;28;46291;-57
2023/03/28 03:47:29;;;;;;;;;4.20;4.20;;;;;7.78;45.58;101875.63;5015242;28;45296;-56
2023/03/28 03:49:54;;;;;;;;;5.25;5.25;;;;;8.00;45.53;101915.19;5015414;28;45228;-57
2023/03/28 03:52:20;;;;;;;;;5.00;2.00;;;;;7.80;45.77;101880.94;5015459;28;45357;-56
2023/03/28 03:54:45;;;;;;;;;5.00;5.00;;;;;7.97;46.10;101911.94;5030940;28;46866;-56
2023/03/28 03:57:10;;;;;;;;;7.00;5.75;;;;;7.95;45.91;101911.25;5036724;28;45440;-56
2023/03/28 03:59:36;;;;;;;;;4.00;3.00;;;;;7.61;46.08;101863.78;5036785;28;45398;-56
2023/03/28 04:02:02;;;;;;;;;4.25;3.00;;;;;7.91;45.97;101907.13;5035399;28;45344;-56
2023/03/28 04:04:27;;;;;;;;;3.00;3.00;;;;;7.83;46.11;101899.75;5036232;28;46855;-56
2023/03/28 04:06:53;;;;;;;;;5.50;5.50;;;;;7.83;45.75;101894.28;5036679;28;45351;-56
2023/03/28 04:09:21;;;;;;;;;2.50;2.00;;;;;7.98;45.70;101902.69;5018519;28;45362;-56
2023/03/28 04:11:47;;;;;;;;;5.00;2.00;;;;;8.01;45.61;101910.59;5036768;28;45277;-57
2023/03/28 04:14:12;;;;;;;;;6.00;2.50;;;;;7.53;45.66;101829.09;5036180;28;45392;-55
2023/03/28 04:16:37;;;;;;;;;6.00;2.00;;;;;8.03;46.08;101904.94;5036640;28;45367;-55
2023/03/28 04:19:04;;;;;;;;;2.00;2.00;;;;;8.01;45.81;101910.59;5026468;28;45353;-57
2023/03/28 04:21:30;;;;;;;;;1.60;1.60;;;;;7.98;46.17;101906.31;5032392;28;45344;-53
2023/03/28 04:23:55;;;;;;;;;2.50;2.50;;;;;7.99;45.87;101910.75;5051588;28;46468;-56
2023/03/28 04:26:24;;;;;;;;;4.50;2.50;;;;;7.94;46.11;101904.03;5032844;28;45567;-53
2023/03/28 04:28:53;;;;;;;;;3.00;3.00;;;;;7.90;45.85;101910.88;5028595;28;45434;-53
2023/03/28 04:31:20;;;;;;;;;2.60;2.60;;;;;7.96;46.44;101919.25;5051283;28;45222;-55
2023/03/28 04:33:46;;;;;;;;;6.80;5.60;;;;;7.53;46.83;101836.44;5034531;28;45764;-56
2023/03/28 04:36:11;;;;;;;;;4.25;1.75;;;;;7.62;46.84;101864.66;5051693;28;45318;-53
2023/03/28 04:38:40;;;;;;;;;5.00;5.00;;;;;7.92;46.57;101919.75;5035641;28;45405;-56
2023/03/28 04:41:07;;;;;;;;;5.20;4.80;;;;;7.92;46.94;101912.44;5036294;28;45419;-54
2023/03/28 04:43:32;;;;;;;;;6.00;4.80;;;;;7.66;47.25;101880.56;5035743;28;46216;-54
2023/03/28 04:45:58;;;;;;;;;4.50;4.50;;;;;7.86;46.85;101915.81;5035870;28;45370;-57
2023/03/28 04:48:24;;;;;;;;;6.50;6.50;;;;;7.86;46.80;101904.91;5034706;28;45351;-53
2023/03/28 04:50:50;;;;;;;;;3.00;3.00;;;;;7.85;47.20;101906.75;5035430;28;45374;-55
2023/03/28 04:53:16;;;;;;;;;6.50;5.25;;;;;7.89;47.69;101912.75;5017427;28;46195;-56
2023/03/28 04:55:42;;;;;;;;;4.25;2.50;;;;;7.86;47.57;101908.47;5035291;28;45453;-56
2023/03/28 04:58:08;;;;;;;;;10.00;3.40;;;;;7.57;47.63;101867.88;5050774;28;45450;-56
2023/03/28 05:00:35;;;;;;;;;3.00;3.00;;;;;7.80;47.71;101908.28;5051207;28;45492;-56
2023/03/28 05:03:03;;;;;;;;;1.40;1.40;;;;;7.81;47.55;101910.84;5035261;28;45833;-56
2023/03/28 05:05:28;;;;;;;;;4.00;2.80;;;;;7.76;47.83;101918.69;5017774;28;45856;-56
2023/03/28 05:07:54;;;;;;;;;5.25;5.00;;;;;7.40;47.75;101865.06;5035338;28;45356;-55
2023/03/28 05:10:20;;;;;;;;;6.00;6.00;;;;;7.69;48.23;101918.47;5035851;28;45439;-54
2023/03/28 05:12:45;;;;;;;;;8.00;6.00;;;;;7.58;48.01;101896.94;5034965;28;46142;-54
2023/03/28 05:15:11;;;;;;;;;10.25;6.25;;;;;7.61;48.46;101915.72;5035650;28;45287;-56
2023/03/28 05:17:36;;;;;;;;;5.00;5.00;;;;;7.67;48.06;101917.78;5035301;28;45481;-56
2023/03/28 05:20:04;;;;;;;;;7.75;7.75;;;;;7.71;48.44;101929.25;5017428;28;45603;-55
2023/03/28 05:22:30;;;;;;;;;7.80;7.80;;;;;7.65;48.57;101930.78;5035073;28;45892;-53
2023/03/28 05:24:56;;;;;;;;;7.00;7.00;;;;;7.67;48.71;101920.53;5035013;28;45328;-56
2023/03/28 05:27:21;;;;;;;;;7.00;7.00;;;;;7.67;48.49;101922.38;5017364;28;45399;-55
2023/03/28 05:29:46;;;;;;;;;7.75;7.00;;;;;7.68;48.42;101924.97;5035069;28;45524;-55
2023/03/28 05:32:12;;;;;;;;;10.25;7.50;;;;;7.55;48.54;101917.22;5034970;28;46468;-55
2023/03/28 05:34:37;;;;;;;;;6.75;6.75;;;;;6.85;49.20;101809.84;5017116;28;45436;-55
2023/03/28 05:37:03;;;;;;;;;8.00;5.00;;;;;7.52;49.15;101925.75;5017275;28;45407;-54
2023/03/28 05:39:28;;;;;;;;;6.25;6.25;;;;;6.88;49.07;101817.69;5017162;28;45509;-52
2023/03/28 05:41:54;;;;;;;;;10.50;9.50;;;;;7.54;49.19;101917.38;5016496;28;46943;-55
2023/03/28 05:44:19;;;;;;;;;8.25;6.75;;;;;7.31;49.35;101894.22;5034657;28;45180;-54
2023/03/28 05:46:45;;;;;;;;;10.75;8.50;;;;;7.47;49.36;101919.91;5034877;28;45209;-55
2023/03/28 05:49:11;;;;;;;;;14.00;8.25;;;;;7.26;49.29;101888.38;5034979;28;45648;-56
2023/03/28 05:51:36;;;;;;;;;10.25;7.00;;;;;7.40;49.73;101918.84;5034888;28;45493;-54
2023/03/28 05:54:02;;;;;;;;;8.25;8.25;;;;;7.35;49.58;101923.94;5032220;28;45474;-55
2023/03/28 05:56:27;;;;;;;;;9.75;7.25;;;;;7.36;49.66;101921.03;5034866;28;45470;-54
2023/03/28 05:58:53;;;;;;;;;13.25;9.50;;;;;7.33;49.53;101919.47;5034701;28;45438;-56
2023/03/28 06:01:26;;;;;;;;;10.50;5.00;;;;;7.32;49.66;101916.94;5034809;28;45886;-56
2023/03/28 06:03:52;;;;;;;;;7.00;7.00;;;;;7.40;49.98;101925.16;5034549;28;45462;-56
2023/03/28 06:06:18;;;;;;;;;8.00;6.00;;;;;7.41;49.79;101917.81;5034810;28;45437;-58
2023/03/28 06:08:43;;;;;;;;;9.00;6.60;;;;;7.41;50.28;101918.69;5034611;28;45891;-55
2023/03/28 06:11:10;;;;;;;;;7.50;5.75;;;;;7.30;49.84;101921.69;4999625;28;47432;-53
2023/03/28 06:13:35;;;;;;;;;6.40;6.00;;;;;7.23;50.33;101923.34;5033971;28;45465;-55
2023/03/28 06:16:01;;;;;;;;;6.75;5.75;;;;;7.20;50.45;101924.53;5034386;28;45340;-56
2023/03/28 06:18:26;;;;;;;;;10.00;10.00;;;;;7.02;50.57;101892.69;5034497;28;45477;-56
2023/03/28 06:20:52;;;;;;;;;11.75;10.00;;;;;7.31;50.31;101939.81;5034220;28;45365;-55
2023/03/28 06:23:17;;;;;;;;;7.50;6.75;;;;;7.30;49.98;101927.16;5034023;28;45384;-55
2023/03/28 06:25:43;;;;;;;;;8.00;8.00;;;;;7.42;49.85;101939.50;5034503;28;45264;-52
2023/03/28 06:28:08;;;;;;;;;9.50;8.00;;;;;7.48;49.96;101945.34;5033178;28;45633;-55
2023/03/28 06:30:34;;;;;;;;;8.25;8.25;;;;;7.37;49.77;101928.22;5032512;28;48718;-53
2023/03/28 06:33:00;;;;;;;;;8.25;8.25;;;;;7.41;50.24;101942.41;5034530;28;45224;-57
2023/03/28 06:35:25;;;;;;;;;7.00;7.00;;;;;7.24;50.07;101916.88;5049534;28;45260;-57
2023/03/28 06:37:51;;;;;;;;;9.75;9.75;;;;;7.44;50.27;101937.50;5034375;28;45563;-55
2023/03/28 06:40:16;;;;;;;;;8.25;7.50;;;;;7.19;50.25;101907.28;5002151;28;46068;-56
2023/03/28 06:42:42;;;;;;;;;6.00;5.00;;;;;7.48;50.42;101943.50;5023807;28;45406;-56
2023/03/28 06:45:08;;;;;;;;;6.50;5.50;;;;;7.45;50.53;101947.41;5004853;28;45406;-55
2023/03/28 06:47:34;;;;;;;;;12.00;9.20;;;;;7.46;50.56;101954.56;5032554;28;45619;-56
2023/03/28 06:49:59;;;;;;;;;8.00;8.00;;;;;7.40;50.71;101948.88;5016093;28;45616;-56
2023/03/28 06:52:25;;;;;;;;;15.50;9.75;;;;;7.56;50.23;101953.59;5033651;28;45311;-55
2023/03/28 06:54:50;;;;;;;;;10.25;8.75;;;;;7.53;50.36;101946.56;5034161;28;45450;-55
2023/03/28 06:57:16;;;;;;;;;6.25;6.25;;;;;7.54;50.51;101940.13;5016587;28;45313;-53
2023/03/28 06:59:42;;;;;;;;;10.25;10.00;;;;;7.60;50.26;101931.25;5032778;28;46125;-55
2023/03/28 07:02:09;;;;;;;;;7.00;7.00;;;;;7.66;50.26;101927.03;5014430;28;45436;-56
2023/03/28 07:04:35;;;;;;;;;11.40;7.40;;;;;7.70;50.06;101925.66;5023227;28;45520;-54
2023/03/28 07:07:00;;;;;;;;;9.50;7.75;;;;;7.65;49.66;101910.78;4996831;28;45583;-54
2023/03/28 07:09:26;;;;;;;;;8.25;8.25;;;;;7.82;49.54;101928.09;5014908;28;46412;-54
2023/03/28 07:11:51;;;;;;;;;10.50;10.50;;;;;7.37;49.77;101853.63;5033262;28;45366;-53
2023/03/28 07:14:17;;;;;;;;;7.75;7.00;;;;;7.67;49.94;101915.06;5015831;28;45486;-53
2023/03/28 07:16:43;;;;;;;;;8.50;7.00;;;;;7.61;49.99;101910.25;5037404;28;45932;-52
2023/03/28 07:19:08;;;;;;;;;14.00;11.50;;;;;7.33;49.43;101858.56;5037554;28;45861;-56
2023/03/28 07:21:34;;;;;;;;;11.50;9.00;;;;;7.30;50.24;101851.53;5037043;28;45438;-54
2023/03/28 07:23:59;;;;;;;;;10.50;8.25;;;;;7.54;49.96;101887.34;5019415;28;45394;-55
2023/03/28 07:26:26;;;;;;;;;6.50;3.00;;;;;7.23;50.29;101841.41;5019376;28;45391;-56
2023/03/28 07:28:53;;;;;;;;;14.20;11.80;;;;;7.44;50.44;101892.91;5037022;28;45326;-53
2023/03/28 07:31:20;;;;;;;;;10.60;10.60;;;;;7.46;51.11;101915.47;5019279;28;45316;-54
2023/03/28 07:33:45;;;;;;;;;10.00;8.60;;;;;7.52;50.52;101913.97;5036697;28;45213;-55
2023/03/28 07:36:13;;;;;;;;;7.75;6.50;;;;;7.59;50.57;101918.59;5037548;28;45835;-55
2023/03/28 07:38:38;;;;;;;;;12.00;8.40;;;;;7.57;50.03;101912.44;5036619;28;46120;-54
2023/03/28 07:41:04;;;;;;;;;11.00;11.00;;;;;7.41;50.67;101883.16;5036738;28;45378;-54
2023/03/28 07:43:29;;;;;;;;;11.00;11.00;;;;;7.76;50.19;101918.69;5030329;28;45506;-56
2023/03/28 07:46:05;;;;;;;;;13.50;10.75;;;;;7.65;50.00;101895.25;5016304;28;45571;-56
2023/03/28 07:48:30;;;;;;;;;15.80;10.20;;;;;7.88;49.79;101915.66;5004497;28;45853;-54
2023/03/28 07:50:56;;;;;;;;;11.50;10.50;;;;;7.91;49.46;101923.53;5033265;28;45471;-56
2023/03/28 07:53:22;;;;;;;;;11.25;9.75;;;;;7.98;49.80;101928.19;5041473;28;45663;-55
2023/03/28 07:55:48;;;;;;;;;15.00;12.50;;;;;7.67;50.13;101887.72;5027818;28;45429;-55
2023/03/28 07:58:13;;;;;;;;;10.50;10.00;;;;;7.85;50.11;101931.34;5024833;28;46885;-55
2023/03/28 08:00:39;;;;;;;;;10.75;9.50;;;;;7.87;50.11;101925.72;5031703;28;45758;-59
2023/03/28 08:03:05;;;;;;;;;9.40;8.40;;;;;7.94;50.07;101937.72;5035396;28;45816;-58
2023/03/28 08:05:33;;;;;;;;;13.25;12.00;;;;;8.02;50.29;101933.31;5040599;28;45837;-59
2023/03/28 08:07:58;;;;;;;;;13.80;12.60;;;;;8.00;49.75;101936.19;5032950;28;46045;-58
2023/03/28 08:10:24;;;;;;;;;11.40;10.80;;;;;8.11;49.70;101929.59;5032891;28;45436;-57
2023/03/28 08:12:50;;;;;;;;;9.00;7.50;;;;;8.20;49.80;101922.22;5015219;28;45807;-57
2023/03/28 08:15:16;;;;;;;;;10.25;10.25;;;;;8.32;49.35;101920.91;5021753;28;45590;-58
2023/03/28 08:17:41;;;;;;;;;9.00;7.50;;;;;8.40;48.76;101922.81;5039687;28;45385;-57
2023/03/28 08:20:09;;;;;;;;;14.00;12.00;;;;;8.41;48.95;101922.63;5031301;28;45401;-56
2023/03/28 08:22:35;;;;;;;;;14.20;11.00;;;;;8.50;49.16;101931.69;5033375;28;45598;-58
2023/03/28 08:25:00;;;;;;;;;10.75;10.75;;;;;8.56;49.03;101927.47;5029376;28;45367;-59
2023/03/28 08:27:26;;;;;;;;;8.00;8.00;;;;;8.42;48.44;101887.91;5023551;28;45501;-57
2023/03/28 08:29:51;;;;;;;;;12.00;8.75;;;;;8.75;48.53;101919.97;5038386;28;45471;-54
2023/03/28 08:32:17;;;;;;;;;11.50;9.75;;;;;8.79;48.05;101916.72;5032635;28;45887;-56
2023/03/28 08:34:43;;;;;;;;;12.20;9.60;;;;;8.91;48.19;101922.69;5031264;28;45576;-56
2023/03/28 08:37:08;;;;;;;;;12.50;12.00;;;;;8.91;47.19;101910.91;5038008;28;46250;-55
2023/03/28 08:39:36;;;;;;;;;12.75;11.25;;;;;8.92;47.91;101912.59;5050591;28;45463;-52
2023/03/28 08:42:46;;;;;;;;;12.40;12.40;;;;;8.94;46.52;101922.34;5020819;28;45395;-55
2023/03/28 08:45:17;;;;;;;;;9.00;9.00;;;;;8.93;46.90;101925.25;5043047;28;45520;-56
2023/03/28 08:47:54;;;;;;;;;13.40;11.00;;;;;8.73;46.59;101886.41;5040495;28;46401;-56
2023/03/28 08:50:32;;;;;;;;;12.20;12.20;;;;;8.30;45.50;101816.28;5014052;28;49146;-56
2023/03/28 08:52:57;;;;;;;;;8.00;7.60;;;;;8.91;46.23;101911.72;5030102;28;45527;-53
2023/03/28 08:55:27;;;;;;;;;8.00;8.00;;;;;8.88;46.94;101883.84;5014148;28;45695;-54
2023/03/28 08:57:53;;;;;;;;;7.80;7.80;;;;;9.03;45.28;101898.53;5033116;28;45890;-51
2023/03/28 09:00:38;;;;;;;;;4.40;4.40;;;;;9.03;45.60;101887.56;5016893;28;45487;-54
2023/03/28 09:03:11;;;;;;;;;11.20;7.80;;;;;9.13;45.03;101897.50;5011625;28;45378;-54
2023/03/28 09:05:41;;;;;;;;;8.20;6.40;;;;;9.15;44.98;101893.56;5026728;28;45561;-54
2023/03/28 09:08:31;;;;;;;;;7.60;5.80;;;;;9.26;44.81;101895.09;5021584;28;46068;-54
2023/03/28 09:11:18;;;;;;;;;7.80;7.80;;;;;9.34;44.66;101883.25;5030440;28;46039;-53
2023/03/28 09:14:18;;;;;;;;;8.00;6.00;;;;;9.46;44.46;101880.97;5048973;28;45733;-54
2023/03/28 09:16:49;;;;;;;;;4.20;4.20;;;;;9.51;44.22;101885.94;5051755;28;45435;-57
2023/03/28 09:19:32;;;;;;;;;3.20;2.20;;;;;9.58;43.77;101884.19;5033253;28;47835;-55
2023/03/28 09:22:07;;;;;;;;;4.80;4.80;;;;;9.62;43.86;101877.31;5046175;28;46176;-55
2023/03/28 09:25:12;;;;;;;;;7.40;4.00;;;;;9.66;43.23;101889.63;5040086;28;46436;-57
2023/03/28 09:27:57;;;;;;;;;6.80;5.20;;;;;9.69;43.04;101880.19;5036989;28;45649;-55
2023/03/28 09:30:26;;;;;;;;;5.60;5.60;;;;;9.63;43.55;101877.16;5005413;28;46641;-55
2023/03/28 09:32:54;;;;;;;;;8.60;7.20;;;;;9.70;42.69;101885.50;5039787;28;45473;-52
2023/03/28 09:35:21;;;;;;;;;11.20;7.60;;;;;9.78;42.15;101879.16;5033885;28;45463;-52
2023/03/28 09:37:52;;;;;;;;;3.40;3.40;;;;;9.67;42.59;101844.75;5066590;28;45468;-54
2023/03/28 09:40:21;;;;;;;;;8.00;7.00;;;;;9.91;42.65;101870.31;5028775;28;45406;-55
2023/03/28 09:43:10;;;;;;;;;6.00;3.80;;;;;9.88;42.14;101863.31;5030594;28;45417;-53
2023/03/28 09:45:35;;;;;;;;;3.40;3.40;;;;;9.93;42.08;101853.69;5001860;28;45429;-56
2023/03/28 09:48:03;;;;;;;;;5.50;3.75;;;;;10.08;42.55;101849.13;5031883;28;45966;-55
2023/03/28 09:50:29;;;;;;;;;6.80;4.00;;;;;10.14;40.92;101845.66;5027870;28;49879;-52
2023/03/28 09:52:55;;;;;;;;;2.00;2.00;;;;;10.10;41.39;101832.50;5013586;28;45396;-57
2023/03/28 09:55:25;;;;;;;;;4.40;3.00;;;;;10.05;41.07;101830.31;5044566;28;45516;-55
2023/03/28 09:58:04;;;;;;;;;2.80;2.00;;;;;10.12;41.57;101834.03;5051954;27;45416;-56
2023/03/28 10:00:49;;;;;;;;;3.20;3.20;;;;;10.18;41.48;101826.94;5029286;28;47652;-58
2023/03/28 10:03:31;;;;;;;;;6.00;2.60;;;;;9.89;40.86;101770.94;5014101;28;45491;-57
2023/03/28 10:05:57;;;;;;;;;2.00;2.00;;;;;10.27;39.96;101834.09;5012028;28;45468;-55
2023/03/28 10:08:27;;;;;;;;;5.20;2.40;;;;;10.13;40.71;101794.59;5035348;28;45409;-56
2023/03/28 10:11:03;;;;;;;;;2.00;2.00;;;;;10.43;40.12;101815.81;5029774;28;46600;-55
2023/03/28 10:13:35;;;;;;;;;4.00;2.60;;;;;10.49;40.11;101820.56;5049093;28;45389;-54
2023/03/28 10:16:02;;;;;;;;;2.40;2.20;;;;;10.59;39.53;101812.06;5031789;28;45445;-55
2023/03/28 10:18:28;;;;;;;;;2.80;2.80;;;;;10.46;39.98;101773.44;5014448;28;45916;-56
2023/03/28 10:20:55;;;;;;;;;4.00;3.80;;;;;10.66;39.94;101807.53;5047201;28;45358;-54
2023/03/28 10:23:21;;;;;;;;;3.60;3.00;;;;;10.79;40.27;101809.63;5033499;28;45495;-56
2023/03/28 10:25:49;;;;;;;;;2.20;1.80;;;;;10.88;40.17;101807.66;4997192;28;45357;-57
2023/03/28 10:28:29;;;;;;;;;2.80;2.80;;;;;10.76;40.58;101776.19;5030683;28;45528;-58
2023/03/28 10:30:56;;;;;;;;;4.20;2.80;;;;;10.96;40.11;101804.84;5031757;28;46418;-56
2023/03/28 10:33:24;;;;;;;;;4.40;4.40;;;;;10.98;39.83;101807.38;5029950;28;45938;-54
2023/03/28 10:36:00;;;;;;;;;4.00;2.60;;;;;11.01;40.51;101803.41;5033307;28;45458;-55
2023/03/28 10:38:31;;;;;;;;;3.00;3.00;;;;;11.09;40.41;101819.78;5031885;28;45602;-55
2023/03/28 10:41:06;;;;;;;;;2.00;2.00;;;;;10.87;39.84;101781.22;5031699;28;46480;-55
2023/03/28 10:43:41;;;;;;;;;3.00;2.00;;;;;10.97;39.67;101795.56;5046190;28;45479;-56
2023/03/28 10:46:18;;;;;;;;;2.40;2.00;;;;;11.04;39.77;101801.13;5047184;28;45321;-58
2023/03/28 10:48:52;;;;;;;;;2.20;2.20;;;;;11.03;39.85;101793.06;5028509;28;45549;-56
2023/03/28 10:51:22;;;;;;;;;2.60;2.60;;;;;10.94;39.40;101790.44;5017474;28;45880;-55
2023/03/28 10:54:13;;;;;;;;;3.60;3.60;;;;;11.01;39.87;101787.78;5016566;28;45465;-56
2023/03/28 10:56:54;;;;;;;;;2.00;2.00;;;;;11.04;39.71;101776.41;5048540;28;45859;-56
2023/03/28 10:59:24;;;;;;;;;2.60;2.60;;;;;11.00;40.68;101764.13;5022702;28;45411;-53
2023/03/28 11:02:34;;;;;;;;;3.80;3.00;;;;;11.14;40.22;101767.03;5036281;28;47722;-55
2023/03/28 11:05:15;;;;;;;;;4.20;3.60;;;;;11.05;40.37;101756.13;4986492;28;45435;-55
2023/03/28 11:07:58;;;;;;;;;6.60;4.40;;;;;11.02;40.35;101758.41;5069062;28;45431;-57
2023/03/28 11:10:33;;;;;;;;;4.40;2.40;;;;;10.96;40.33;101757.28;5054944;28;45482;-56
2023/03/28 11:13:18;;;;;;;;;4.00;4.00;;;;;10.92;39.64;101756.81;5030795;28;45602;-54
2023/03/28 11:16:14;;;;;;;;;3.00;3.00;;;;;10.80;39.85;101722.63;5036439;28;45395;-56
2023/03/28 11:18:50;;;;;;;;;4.60;3.40;;;;;10.92;39.76;101748.56;5050900;28;45548;-57
2023/03/28 11:21:21;;;;;;;;;6.40;6.40;;;;;10.91;39.51;101755.13;5017882;28;45422;-55
2023/03/28 11:23:58;;;;;;;;;4.00;4.00;;;;;10.97;39.99;101740.63;5001101;28;48499;-54
2023/03/28 11:26:33;;;;;;;;;3.40;3.40;;;;;11.10;40.54;101728.09;5019366;28;45401;-55
2023/03/28 11:29:17;;;;;;;;;5.20;3.40;;;;;10.81;39.88;101670.25;5036436;28;45366;-55
2023/03/28 11:32:07;;;;;;;;;6.00;5.60;;;;;11.25;40.04;101752.78;5017795;28;45813;-55
2023/03/28 11:34:56;;;;;;;;;5.40;4.00;;;;;11.45;39.98;101741.19;5036328;28;45169;-55
2023/03/28 11:37:25;;;;;;;;;5.80;3.80;;;;;11.49;40.28;101735.09;5036161;28;45342;-56
2023/03/28 11:39:58;;;;;;;;;3.00;3.00;;;;;11.49;39.66;101726.88;5002978;28;45408;-53
2023/03/28 11:42:27;;;;;;;;;5.00;2.80;;;;;11.40;40.07;101728.03;5032627;28;46449;-52
2023/03/28 11:45:17;;;;;;;;;3.00;3.00;;;;;11.43;40.45;101732.31;5035719;28;46146;-52